Time;durP1;ratioP1;P1;durP2;ratioP2;P2;SDS_P1;SDS_P2;PMS_P1;PMS_P2;Temp;Humidity;BMP_temperature;BMP_pressure;BME280_temperature;BME280_humidity;BME280_pressure;Samples;Min_cycle;Max_cycle;Signal;HPM_P1;HPM_P2
2022/02/19 00:01:19;;;;;;;;;;;;;;;-0.47;100.00;98901.18;1818053;79;21028;-64
2022/02/19 00:03:45;;;;;;;16.95;6.15;;;;;;;-0.47;100.00;98893.16;1807500;77;20389;-64
2022/02/19 00:06:11;;;;;;;12.28;5.12;;;;;;;-0.54;100.00;98890.04;1821223;78;21572;-64
2022/02/19 00:08:38;;;;;;;12.45;4.90;;;;;;;-0.49;100.00;98882.67;1820843;77;21498;-64
2022/02/19 00:11:05;;;;;;;13.10;5.05;;;;;;;-0.42;100.00;98881.27;1794157;79;21499;-64
2022/02/19 00:13:32;;;;;;;16.62;5.50;;;;;;;-0.37;100.00;98877.42;1794385;78;21573;-65
2022/02/19 00:16:03;;;;;;;10.78;4.58;;;;;;;-0.39;100.00;98876.29;1792511;77;21590;-63
2022/02/19 00:18:27;;;;;;;14.07;5.15;;;;;;;-0.41;100.00;98878.89;1807888;79;21005;-64
2022/02/19 00:20:56;;;;;;;12.50;5.90;;;;;;;-0.42;100.00;98867.89;1810641;79;21071;-64
2022/02/19 00:23:26;;;;;;;13.68;5.47;;;;;;;-0.40;100.00;98864.50;1818039;79;21909;-63
2022/02/19 00:25:51;;;;;;;12.47;5.37;;;;;;;-0.39;100.00;98860.79;1812326;79;20992;-64
2022/02/19 00:28:18;;;;;;;11.53;5.78;;;;;;;-0.39;100.00;98859.45;1791241;79;21036;-64
2022/02/19 00:30:45;;;;;;;16.90;6.28;;;;;;;-0.43;100.00;98847.05;1805867;79;21657;-64
2022/02/19 00:33:11;;;;;;;11.95;5.55;;;;;;;-0.41;100.00;98843.62;1806046;79;21091;-64
2022/02/19 00:35:38;;;;;;;9.53;5.05;;;;;;;-0.37;100.00;98839.98;1787925;77;21000;-64
2022/02/19 00:38:04;;;;;;;11.45;5.08;;;;;;;-0.35;100.00;98828.52;1807086;79;21092;-64
2022/02/19 00:40:31;;;;;;;11.10;5.37;;;;;;;-0.35;100.00;98824.52;1804673;79;21694;-64
2022/02/19 00:42:58;;;;;;;11.33;5.10;;;;;;;-0.40;100.00;98813.69;1786725;79;21016;-64
2022/02/19 00:45:27;;;;;;;11.43;5.00;;;;;;;-0.39;100.00;98807.31;1816101;77;21491;-66
2022/02/19 00:47:54;;;;;;;9.30;4.70;;;;;;;-0.38;100.00;98812.41;1813987;79;21028;-63
2022/02/19 00:50:21;;;;;;;;;;;;;;;-0.41;100.00;98806.70;1796262;79;21059;-63
2022/02/19 00:52:48;;;;;;;13.22;5.58;;;;;;;-0.51;100.00;98809.91;1777622;79;20135;-63
2022/02/19 00:55:15;;;;;;;14.00;6.25;;;;;;;-0.63;100.00;98811.67;1794608;79;21454;-62
2022/02/19 00:57:42;;;;;;;;;;;;;;;-0.66;100.00;98809.45;1792213;79;21029;-63
2022/02/19 01:00:10;;;;;;;11.15;5.37;;;;;;;-0.68;100.00;98807.53;1773007;79;20424;-63
2022/02/19 01:02:39;;;;;;;15.80;6.03;;;;;;;-0.74;100.00;98816.41;1778405;79;21002;-65
2022/02/19 01:05:08;;;;;;;12.53;5.80;;;;;;;-0.83;100.00;98797.70;1799746;79;20974;-66
2022/02/19 01:07:36;;;;;;;12.98;5.50;;;;;;;-0.85;100.00;98793.12;1804166;79;21061;-63
2022/02/19 01:10:07;;;;;;;12.20;5.70;;;;;;;-0.85;100.00;98787.77;1801160;79;21387;-63
2022/02/19 01:12:35;;;;;;;12.58;5.58;;;;;;;-0.87;100.00;98782.64;1768098;80;21007;-64
2022/02/19 01:15:06;;;;;;;12.28;5.05;;;;;;;-0.91;100.00;98786.78;1772148;80;21580;-63
2022/02/19 01:17:32;;;;;;;13.18;5.25;;;;;;;-0.91;100.00;98781.95;1788718;80;21049;-65
2022/02/19 01:19:59;;;;;;;12.55;5.83;;;;;;;-0.89;100.00;98775.89;1779441;80;21384;-64
2022/02/19 01:22:26;;;;;;;10.50;4.72;;;;;;;-0.89;100.00;98776.71;1789934;80;21517;-64
2022/02/19 01:24:52;;;;;;;16.02;5.90;;;;;;;-0.85;100.00;98775.75;1770132;80;21617;-64
2022/02/19 01:27:19;;;;;;;11.03;5.22;;;;;;;-0.84;100.00;98766.16;1791134;80;21595;-64
2022/02/19 01:29:45;;;;;;;13.25;5.58;;;;;;;-0.78;100.00;98766.59;1764734;80;21516;-64
2022/02/19 01:32:12;;;;;;;10.30;5.55;;;;;;;-0.75;100.00;98770.19;1764442;80;21097;-64
2022/02/19 01:34:39;;;;;;;12.95;6.12;;;;;;;-0.70;100.00;98756.13;1771196;80;20931;-64
2022/02/19 01:37:06;;;;;;;15.00;6.30;;;;;;;-0.63;100.00;98756.36;1793209;80;20983;-64
2022/02/19 01:39:35;;;;;;;13.53;6.15;;;;;;;-0.53;100.00;98745.13;1764573;80;21022;-65
2022/02/19 01:42:04;;;;;;;12.58;6.25;;;;;;;-0.41;100.00;98742.01;1770162;80;21022;-64
2022/02/19 01:44:38;;;;;;;12.85;6.15;;;;;;;-0.30;100.00;98743.11;1771594;80;21042;-64
2022/02/19 01:47:07;;;;;;;10.43;5.58;;;;;;;-0.24;100.00;98736.84;1764301;80;21521;-64
2022/02/19 01:49:34;;;;;;;11.78;5.97;;;;;;;-0.23;100.00;98735.81;1778520;80;20983;-64
2022/02/19 01:52:01;;;;;;;11.20;5.83;;;;;;;-0.21;100.00;98735.05;1789695;80;21002;-64
2022/02/19 01:54:30;;;;;;;10.72;5.92;;;;;;;-0.15;100.00;98726.95;1789983;80;20963;-64
2022/02/19 01:57:02;;;;;;;15.50;6.65;;;;;;;-0.08;100.00;98722.84;1791102;80;21018;-64
2022/02/19 01:59:37;;;;;;;13.20;6.25;;;;;;;-0.02;100.00;98715.23;1791234;80;20955;-64
2022/02/19 02:02:05;;;;;;;14.73;6.45;;;;;;;0.01;100.00;98716.11;1772342;80;21046;-64
2022/02/19 02:04:38;;;;;;;14.35;6.47;;;;;;;0.02;100.00;98719.61;1788605;80;21486;-63
2022/02/19 02:07:05;;;;;;;12.73;5.78;;;;;;;0.08;100.00;98720.02;1765352;80;21041;-64
2022/02/19 02:09:35;;;;;;;14.25;6.25;;;;;;;0.13;100.00;98725.00;1773009;80;20979;-65
2022/02/19 02:12:02;;;;;;;12.18;6.35;;;;;;;0.15;100.00;98724.23;1767095;79;21605;-64
2022/02/19 02:14:31;;;;;;;11.65;5.75;;;;;;;0.20;100.00;98727.58;1830527;77;20948;-64
2022/02/19 02:16:59;;;;;;;13.03;5.62;;;;;;;0.26;100.00;98719.44;1826092;77;21074;-65
2022/02/19 02:19:27;;;;;;;11.73;6.05;;;;;;;0.33;100.00;98727.36;1790537;78;20971;-64
2022/02/19 02:22:05;;;;;;;11.90;5.90;;;;;;;0.36;100.00;98720.20;1763098;80;20995;-64
2022/02/19 02:24:34;;;;;;;13.15;5.87;;;;;;;0.37;100.00;98720.50;1807876;78;20985;-64
2022/02/19 02:27:07;;;;;;;10.43;5.78;;;;;;;0.42;100.00;98713.42;1745083;80;21045;-63
2022/02/19 02:29:45;;;;;;;10.08;5.10;;;;;;;0.52;100.00;98707.48;1768602;80;21346;-64
2022/02/19 02:32:13;;;;;;;13.53;5.67;;;;;;;0.60;100.00;98699.11;1807420;79;22054;-64
2022/02/19 02:34:50;;;;;;;11.28;5.00;;;;;;;0.63;100.00;98701.84;1785702;78;21007;-64
2022/02/19 02:39:31;;;;;;;9.98;4.87;;;;;;;0.77;100.00;98695.20;1881957;75;23375;-64
2022/02/19 02:41:57;;;;;;;10.32;5.83;;;;;;;0.73;100.00;98696.20;1861252;77;21544;-64
2022/02/19 02:44:24;;;;;;;10.78;4.92;;;;;;;0.76;100.00;98693.56;1855698;77;21552;-64
2022/02/19 02:46:50;;;;;;;11.97;5.60;;;;;;;0.81;100.00;98685.13;1850242;77;21526;-64
2022/02/19 02:49:19;;;;;;;15.00;5.67;;;;;;;0.87;100.00;98684.19;1850720;76;21006;-63
2022/02/19 02:51:45;;;;;;;10.35;5.20;;;;;;;0.83;100.00;98676.33;1839749;77;21000;-64
2022/02/19 02:54:12;;;;;;;13.55;5.25;;;;;;;0.86;100.00;98675.03;1831890;77;21047;-64
2022/02/19 02:56:38;;;;;;;;;;;;;;;0.92;100.00;98665.52;1837919;77;21039;-64
2022/02/19 02:59:06;;;;;;;11.75;4.55;;;;;;;0.97;100.00;98671.52;1846352;77;20150;-64
2022/02/19 03:01:32;;;;;;;10.95;4.42;;;;;;;0.92;100.00;98673.56;1825845;77;21036;-64
2022/02/19 03:04:00;;;;;;;11.78;5.05;;;;;;;0.97;100.00;98680.38;1822850;77;21118;-64
2022/02/19 03:06:26;;;;;;;12.55;4.95;;;;;;;1.00;100.00;98667.84;1833203;77;21047;-64
2022/02/19 03:08:53;;;;;;;;;;;;;;;1.06;100.00;98677.34;1855836;77;21633;-65
2022/02/19 03:11:19;;;;;;;9.88;4.28;;;;;;;1.10;100.00;98674.48;1833722;77;20152;-65
2022/02/19 03:13:48;;;;;;;12.15;4.22;;;;;;;1.08;100.00;98668.53;1822002;77;21119;-64
2022/02/19 03:16:15;;;;;;;10.93;4.45;;;;;;;1.13;100.00;98669.47;1846647;77;21001;-64
2022/02/19 03:18:41;;;;;;;10.72;4.60;;;;;;;1.08;100.00;98649.77;1844167;77;21047;-65
2022/02/19 03:21:08;;;;;;;8.73;4.33;;;;;;;1.23;100.00;98655.45;1848373;77;21028;-64
2022/02/19 03:23:35;;;;;;;8.53;3.92;;;;;;;1.29;100.00;98646.45;1852571;77;21123;-64
2022/02/19 03:26:02;;;;;;;9.80;4.22;;;;;;;1.32;100.00;98632.56;1838326;77;20991;-64
2022/02/19 03:28:30;;;;;;;10.13;4.42;;;;;;;1.36;100.00;98625.67;1859995;76;20976;-65
2022/02/19 03:30:57;;;;;;;10.70;3.90;;;;;;;1.43;100.00;98632.52;1832796;77;21506;-65
2022/02/19 03:33:38;;;;;;;11.08;4.28;;;;;;;1.47;100.00;98622.95;1821347;77;21083;-63
2022/02/19 03:36:06;;;;;;;10.13;3.60;;;;;;;1.58;100.00;98619.11;1840568;77;21004;-63
2022/02/19 03:38:32;;;;;;;8.13;3.25;;;;;;;1.62;100.00;98618.39;1846670;77;21104;-63
2022/02/19 03:41:01;;;;;;;9.38;4.08;;;;;;;1.67;100.00;98621.67;1825755;77;21002;-65
2022/02/19 03:43:29;;;;;;;9.20;3.45;;;;;;;1.72;100.00;98621.77;1820611;79;21105;-65
2022/02/19 03:45:56;;;;;;;8.20;3.40;;;;;;;1.78;100.00;98618.94;1823471;77;20963;-64
2022/02/19 03:48:24;;;;;;;6.83;3.00;;;;;;;1.83;100.00;98614.19;1832935;77;21058;-63
2022/02/19 03:50:51;;;;;;;7.83;3.37;;;;;;;1.87;100.00;98600.58;1821822;77;20995;-64
2022/02/19 03:53:17;;;;;;;7.50;3.12;;;;;;;1.90;100.00;98603.59;1832576;77;21038;-63
2022/02/19 03:55:44;;;;;;;12.20;3.80;;;;;;;1.94;100.00;98591.31;1832229;77;20939;-63
2022/02/19 03:58:10;;;;;;;8.85;3.45;;;;;;;1.99;100.00;98570.43;1837490;77;21094;-63
2022/02/19 04:00:38;;;;;;;8.50;3.37;;;;;;;2.05;100.00;98581.55;1839799;77;20975;-64
2022/02/19 04:03:06;;;;;;;7.80;3.27;;;;;;;2.08;100.00;98574.88;1848867;77;21022;-65
2022/02/19 04:05:32;;;;;;;9.13;3.10;;;;;;;2.11;100.00;98576.53;1851340;77;21022;-64
2022/02/19 04:08:00;;;;;;;7.42;2.85;;;;;;;2.15;100.00;98572.83;1835811;77;21062;-63
2022/02/19 04:10:27;;;;;;;9.05;3.02;;;;;;;2.19;100.00;98568.08;1831729;77;20963;-64
2022/02/19 04:12:54;;;;;;;7.08;3.15;;;;;;;2.20;100.00;98567.52;1835716;77;21435;-63
2022/02/19 04:15:31;;;;;;;6.78;3.15;;;;;;;2.21;100.00;98565.12;1842897;77;20935;-64
2022/02/19 04:17:58;;;;;;;;;;;;;;;2.22;100.00;98556.02;1779492;77;21435;-65
2022/02/19 04:20:26;;;;;;;;;;;;;;;2.23;100.00;98561.13;1856139;77;20107;-65
2022/02/19 04:22:56;;;;;;;10.30;2.90;;;;;;;2.20;100.00;98563.49;1834166;77;20098;-65
2022/02/19 04:25:25;;;;;;;8.10;3.42;;;;;;;2.16;100.00;98556.46;1826828;77;20951;-65
2022/02/19 04:27:55;;;;;;;7.85;3.10;;;;;;;2.19;100.00;98553.31;1843792;77;21002;-65
2022/02/19 04:30:23;;;;;;;6.33;3.00;;;;;;;2.24;100.00;98556.05;1819857;77;20971;-65
2022/02/19 04:32:56;;;;;;;6.05;2.80;;;;;;;2.28;100.00;98546.97;1828986;77;21054;-65
2022/02/19 04:35:21;;;;;;;7.75;3.10;;;;;;;2.33;100.00;98536.31;1832046;77;21453;-65
2022/02/19 04:37:48;;;;;;;6.75;3.12;;;;;;;2.33;100.00;98552.43;1828889;77;21034;-65
2022/02/19 04:40:14;;;;;;;8.53;2.85;;;;;;;2.36;100.00;98544.69;1834149;77;20935;-65
2022/02/19 04:42:43;;;;;;;8.70;2.95;;;;;;;2.37;100.00;98535.55;1780363;80;21023;-66
2022/02/19 04:45:12;;;;;;;8.68;2.90;;;;;;;2.42;100.00;98542.88;1767303;80;21469;-66
2022/02/19 04:47:41;;;;;;;7.70;3.17;;;;;;;2.35;100.00;98524.26;1766337;81;21053;-65
2022/02/19 04:50:09;;;;;;;7.87;3.37;;;;;;;2.47;100.00;98536.23;1783889;79;20962;-65
2022/02/19 04:52:37;;;;;;;7.45;3.10;;;;;;;2.40;100.00;98507.41;1811680;79;21669;-64
2022/02/19 04:55:04;;;;;;;6.28;2.83;;;;;;;2.51;100.00;98518.56;1807785;79;20974;-66
2022/02/19 04:57:31;;;;;;;5.97;2.87;;;;;;;2.53;100.00;98514.27;1812947;79;21603;-66
2022/02/19 04:59:59;;;;;;;5.67;3.22;;;;;;;2.56;100.00;98513.77;1799316;79;21018;-65
2022/02/19 05:02:28;;;;;;;7.55;2.83;;;;;;;2.57;100.00;98516.75;1789318;79;21101;-65
2022/02/19 05:04:54;;;;;;;7.25;2.87;;;;;;;2.62;100.00;98512.79;1788640;79;21001;-65
2022/02/19 05:07:23;;;;;;;6.97;3.12;;;;;;;2.66;100.00;98507.20;1807012;79;21021;-66
2022/02/19 05:09:49;;;;;;;6.35;3.10;;;;;;;2.69;100.00;98506.17;1808345;79;21041;-65
2022/02/19 05:12:18;;;;;;;6.40;3.12;;;;;;;2.69;100.00;98512.08;1796244;79;21038;-65
2022/02/19 05:14:46;;;;;;;6.78;3.02;;;;;;;2.70;100.00;98519.87;1789269;79;21022;-65
2022/02/19 05:17:15;;;;;;;6.85;2.95;;;;;;;2.74;100.00;98516.14;1786979;79;21073;-66
2022/02/19 05:19:45;;;;;;;8.05;3.08;;;;;;;2.73;100.00;98518.58;1794176;79;21563;-65
2022/02/19 05:22:12;;;;;;;8.58;3.45;;;;;;;2.75;100.00;98517.25;1788157;79;21660;-65
2022/02/19 05:24:40;;;;;;;8.18;3.50;;;;;;;2.78;100.00;98521.30;1791978;79;21037;-65
2022/02/19 05:27:11;;;;;;;5.75;2.90;;;;;;;2.81;100.00;98512.73;1790672;79;21001;-65
2022/02/19 05:29:37;;;;;;;;;;;;;;;2.81;100.00;98508.18;1815672;79;21092;-65
2022/02/19 05:32:07;;;;;;;7.30;3.22;;;;;;;2.77;100.00;98526.39;1798018;79;20097;-66
2022/02/19 05:34:36;;;;;;;10.10;3.35;;;;;;;2.66;100.00;98513.92;1784441;79;21036;-66
2022/02/19 05:37:04;;;;;;;7.42;3.02;;;;;;;2.51;100.00;98516.66;1783575;79;20970;-66
2022/02/19 05:39:32;;;;;;;5.45;2.83;;;;;;;2.40;100.00;98520.31;1794012;79;21002;-66
2022/02/19 05:41:59;;;;;;;7.20;3.05;;;;;;;2.32;100.00;98532.81;1808957;79;20939;-66
2022/02/19 05:44:28;;;;;;;9.18;3.67;;;;;;;2.20;100.00;98532.61;1701027;82;21089;-66
2022/02/19 05:46:58;;;;;;;7.85;3.30;;;;;;;2.02;100.00;98533.70;1751274;81;20985;-66
2022/02/19 05:49:26;;;;;;;7.87;3.37;;;;;;;1.94;100.00;98540.32;1763705;81;21086;-65
2022/02/19 05:51:54;;;;;;;6.40;3.60;;;;;;;1.88;100.00;98525.17;1742262;81;21004;-65
2022/02/19 05:54:23;;;;;;;8.08;2.75;;;;;;;1.72;100.00;98532.71;1735249;82;21128;-66
2022/02/19 05:56:51;;;;;;;8.83;3.58;;;;;;;1.61;100.00;98526.08;1736493;82;21001;-66
2022/02/19 05:59:19;;;;;;;5.65;3.00;;;;;;;1.52;100.00;98518.98;1753099;81;21044;-66
2022/02/19 06:01:46;;;;;;;8.98;3.47;;;;;;;1.44;100.00;98518.02;1757146;81;21036;-66
2022/02/19 06:04:12;;;;;;;8.28;3.47;;;;;;;1.34;100.00;98521.36;1770507;80;21052;-65
2022/02/19 06:06:39;;;;;;;;;;;;;;;1.30;100.00;98516.19;1754252;81;21437;-66
2022/02/19 06:09:08;;;;;;;6.47;3.40;;;;;;;1.22;100.00;98501.01;1751612;81;20523;-66
2022/02/19 06:11:36;;;;;;;8.88;2.77;;;;;;;1.18;100.00;98487.27;1738022;81;21016;-65
2022/02/19 06:14:14;;;;;;;7.87;3.25;;;;;;;1.17;100.00;98486.98;1736364;82;21057;-66
2022/02/19 06:16:43;;;;;;;7.00;2.87;;;;;;;1.19;100.00;98488.91;1735265;82;21036;-66
2022/02/19 06:19:10;;;;;;;6.87;3.60;;;;;;;1.19;100.00;98484.07;1737182;81;21085;-66
2022/02/19 06:21:38;;;;;;;9.15;3.70;;;;;;;1.21;100.00;98486.78;1753924;81;20996;-66
2022/02/19 06:24:06;;;;;;;6.95;3.62;;;;;;;1.23;100.00;98494.60;1766020;81;21027;-66
2022/02/19 06:26:32;;;;;;;6.80;3.72;;;;;;;1.26;100.00;98488.75;1748923;80;21004;-66
2022/02/19 06:29:03;;;;;;;7.75;3.85;;;;;;;1.30;100.00;98484.53;1747746;81;21689;-66
2022/02/19 06:31:30;;;;;;;8.93;3.80;;;;;;;1.34;100.00;98487.84;1753000;81;21484;-66
2022/02/19 06:33:56;;;;;;;8.50;3.92;;;;;;;1.40;100.00;98490.06;1737116;81;21040;-66
2022/02/19 06:36:24;;;;;;;8.35;3.92;;;;;;;1.44;100.00;98497.39;1766586;81;20970;-66
2022/02/19 06:38:52;;;;;;;9.25;3.85;;;;;;;1.47;100.00;98484.02;1777011;78;21026;-65
2022/02/19 06:41:20;;;;;;;12.30;3.95;;;;;;;1.53;100.00;98477.67;1777133;80;21482;-65
2022/02/19 06:43:49;;;;;;;12.95;4.35;;;;;;;1.61;100.00;98480.47;1790115;79;21062;-65
2022/02/19 06:46:18;;;;;;;8.63;3.87;;;;;;;1.70;100.00;98473.66;1790451;80;21056;-65
2022/02/19 06:48:44;;;;;;;12.03;4.25;;;;;;;1.75;100.00;98466.48;1768574;80;21059;-66
2022/02/19 06:51:12;;;;;;;11.70;4.15;;;;;;;1.71;100.00;98430.47;1780360;80;20998;-65
2022/02/19 06:53:41;;;;;;;9.75;4.47;;;;;;;1.85;100.00;98438.45;1777197;80;21051;-65
2022/02/19 06:56:07;;;;;;;13.20;4.40;;;;;;;1.90;100.00;98437.72;1788198;80;21026;-65
2022/02/19 06:58:35;;;;;;;11.57;4.00;;;;;;;1.92;100.00;98423.52;1789783;79;21104;-65
2022/02/19 07:01:03;;;;;;;11.35;4.37;;;;;;;1.98;100.00;98407.23;1804698;79;21014;-66
2022/02/19 07:03:30;;;;;;;10.50;3.70;;;;;;;2.14;100.00;98406.91;1806554;79;21085;-66
2022/02/19 07:05:58;;;;;;;7.83;3.10;;;;;;;2.24;100.00;98414.27;1808735;79;21486;-67
2022/02/19 07:08:37;;;;;;;8.40;3.00;;;;;;;2.28;100.00;98420.77;1788670;79;21605;-67
2022/02/19 07:11:03;;;;;;;;;;;;;;;2.31;100.00;98411.67;1785686;79;21021;-68
2022/02/19 07:13:30;;;;;;;7.75;2.80;;;;;;;2.44;100.00;98395.17;1783484;79;20128;-67
2022/02/19 07:15:58;;;;;;;6.22;2.80;;;;;;;2.52;100.00;98354.96;1753658;82;20988;-68
2022/02/19 07:18:30;;;;;;;9.60;4.35;;;;;;;2.60;100.00;98365.27;1787230;79;20992;-68
2022/02/19 07:21:02;;;;;;;8.10;3.12;;;;;;;2.70;100.00;98350.58;1778580;80;20975;-68
2022/02/19 07:23:28;;;;;;;;;;;;;;;2.86;100.00;98343.48;1776167;80;21086;-66
2022/02/19 07:25:55;;;;;;;8.68;2.98;;;;;;;2.97;100.00;98338.47;1774726;80;20210;-66
2022/02/19 07:28:23;;;;;;;5.97;2.50;;;;;;;2.95;100.00;98351.34;1779785;80;21062;-68
2022/02/19 07:30:50;;;;;;;10.45;3.15;;;;;;;2.92;100.00;98369.33;1796963;80;21030;-67
2022/02/19 07:33:17;;;;;;;8.95;3.12;;;;;;;3.02;100.00;98398.98;1795680;79;21545;-67
2022/02/19 07:35:46;;;;;;;8.75;2.92;;;;;;;3.07;100.00;98397.70;1761076;80;21125;-68
2022/02/19 07:38:13;;;;;;;5.87;2.12;;;;;;;3.12;100.00;98400.41;1776086;80;21067;-68
2022/02/19 07:40:40;;;;;;;7.85;2.25;;;;;;;3.18;100.00;98389.19;1781469;80;21007;-66
2022/02/19 07:43:07;;;;;;;6.15;2.50;;;;;;;3.21;100.00;98380.07;1771968;80;21113;-66
2022/02/19 07:45:52;;;;;;;8.65;2.80;;;;;;;3.27;100.00;98385.75;1775737;80;21008;-68
2022/02/19 07:48:37;;;;;;;9.18;3.60;;;;;;;3.32;100.00;98389.84;1791022;79;21691;-68
2022/02/19 07:59:51;;;;;;;7.85;2.90;;;;;;;3.50;100.00;98433.84;1770013;81;21403;-68
2022/02/19 08:02:17;;;;;;;7.67;2.70;;;;;;;3.55;100.00;98412.05;1786966;79;21419;-69
2022/02/19 08:04:44;;;;;;;;;;;;;;;3.61;100.00;98377.40;1784876;79;21982;-69
2022/02/19 08:07:10;;;;;;;7.62;2.90;;;;;;;3.64;100.00;98388.45;1740420;79;20108;-68
2022/02/19 08:09:37;;;;;;;;;;;;;;;3.50;100.00;98400.20;1758849;80;21427;-68
2022/02/19 08:12:05;;;;;;;7.30;3.02;;;;;;;3.43;100.00;98400.95;1784428;80;20139;-69
2022/02/19 08:14:31;;;;;;;10.80;3.25;;;;;;;3.33;100.00;98421.03;1776112;80;21078;-68
2022/02/19 08:16:58;;;;;;;7.92;2.58;;;;;;;3.37;100.00;98428.05;1780480;80;21026;-69
2022/02/19 08:19:26;;;;;;;6.42;2.95;;;;;;;3.44;100.00;98432.16;1783246;80;21576;-71
2022/02/19 08:21:53;;;;;;;6.22;2.85;;;;;;;3.46;100.00;98417.92;1797999;80;21030;-70
2022/02/19 08:24:19;;;;;;;;;;;;;;;3.47;100.00;98419.53;1789289;80;20991;-68
2022/02/19 08:26:46;;;;;;;8.05;3.02;;;;;;;3.49;100.00;98394.54;1781159;79;20135;-67
2022/02/19 08:29:12;;;;;;;8.73;3.20;;;;;;;3.47;100.00;98404.73;1786358;80;21105;-66
2022/02/19 08:31:40;;;;;;;7.17;3.27;;;;;;;3.50;100.00;98397.52;1809666;79;21614;-66
2022/02/19 08:34:06;;;;;;;7.58;3.72;;;;;;;3.56;100.00;98389.46;1790107;80;21532;-66
2022/02/19 08:36:34;;;;;;;8.40;3.90;;;;;;;3.58;100.00;98398.89;1780931;80;21019;-66
2022/02/19 08:39:02;;;;;;;9.73;3.95;;;;;;;3.62;100.00;98404.56;1784055;80;21914;-67
2022/02/19 08:41:29;;;;;;;12.25;4.55;;;;;;;3.64;100.00;98391.67;1800702;79;21043;-67
2022/02/19 08:43:55;;;;;;;7.65;3.35;;;;;;;3.66;100.00;98383.61;1771794;80;21418;-67
2022/02/19 08:46:21;;;;;;;6.08;3.00;;;;;;;3.70;100.00;98389.28;1793143;79;21610;-67
2022/02/19 08:48:48;;;;;;;7.33;2.83;;;;;;;3.80;100.00;98378.04;1794179;79;21529;-67
2022/02/19 08:51:15;;;;;;;;;;;;;;;3.81;100.00;98389.09;1778628;80;21564;-67
2022/02/19 08:53:41;;;;;;;6.97;2.70;;;;;;;3.78;100.00;98404.95;1792092;79;20111;-67
2022/02/19 08:56:08;;;;;;;7.12;2.67;;;;;;;3.72;100.00;98411.38;1783781;79;21433;-68
2022/02/19 08:58:35;;;;;;;5.85;2.72;;;;;;;3.74;100.00;98372.89;1796178;79;21109;-68
2022/02/19 09:01:01;;;;;;;5.03;2.92;;;;;;;3.76;100.00;98415.15;1796011;79;21081;-68
2022/02/19 09:03:28;;;;;;;;;;;;;;;3.84;100.00;98387.22;1790967;79;21100;-67
2022/02/19 09:05:55;;;;;;;5.78;2.67;;;;;;;3.91;100.00;98386.45;1784135;79;20688;-67
2022/02/19 09:08:21;;;;;;;7.67;3.08;;;;;;;3.84;100.00;98395.30;1772388;80;20991;-68
2022/02/19 09:10:47;;;;;;;5.60;2.62;;;;;;;3.85;100.00;98398.27;1784918;79;21061;-72
2022/02/19 09:13:14;;;;;;;5.12;2.72;;;;;;;3.86;100.00;98434.87;1771105;80;21125;-69
2022/02/19 09:15:42;;;;;;;7.78;3.27;;;;;;;3.87;100.00;98435.69;1783192;80;21578;-67
2022/02/19 09:18:09;;;;;;;5.80;2.47;;;;;;;3.86;100.00;98441.59;1771252;80;21051;-66
2022/02/19 09:20:35;;;;;;;6.08;2.70;;;;;;;3.94;100.00;98430.34;1806813;79;21056;-67
2022/02/19 09:23:03;;;;;;;7.85;2.90;;;;;;;3.99;100.00;98417.46;1788954;79;21113;-68
2022/02/19 09:25:30;;;;;;;8.20;3.40;;;;;;;3.98;100.00;98419.87;1757799;81;21077;-69
2022/02/19 09:27:56;;;;;;;7.17;3.52;;;;;;;3.99;100.00;98414.23;1812356;79;21075;-69
2022/02/19 09:30:24;;;;;;;9.40;3.55;;;;;;;4.02;100.00;98420.97;1788061;79;21097;-69
2022/02/19 09:32:50;;;;;;;9.10;4.70;;;;;;;4.05;100.00;98429.87;1796974;79;21055;-69
2022/02/19 09:35:16;;;;;;;;;;;;;;;4.14;100.00;98425.63;1785917;80;21211;-68
2022/02/19 09:37:43;;;;;;;16.93;8.08;;;;;;;4.25;100.00;98390.91;1783622;80;20442;-70
2022/02/19 09:40:10;;;;;;;;;;;;;;;4.24;100.00;98350.78;1787043;79;21633;-69
2022/02/19 09:42:37;;;;;;;9.57;5.33;;;;;;;4.33;100.00;98349.18;1782443;79;20366;-70
2022/02/19 09:45:07;;;;;;;8.68;3.85;;;;;;;4.38;100.00;98363.50;1777814;79;21095;-68
2022/02/19 09:47:34;;;;;;;12.68;6.10;;;;;;;4.50;100.00;98299.38;1772978;80;21097;-68
2022/02/19 09:50:02;;;;;;;9.30;4.33;;;;;;;4.61;100.00;98327.16;1801958;79;21076;-68
2022/02/19 09:52:28;;;;;;;8.93;3.95;;;;;;;4.76;100.00;98316.39;1776676;79;21550;-67
2022/02/19 09:54:59;;;;;;;7.62;3.22;;;;;;;4.91;100.00;98298.07;1807030;79;21584;-67
2022/02/19 09:57:27;;;;;;;10.55;4.08;;;;;;;4.94;100.00;98306.44;1780484;79;21078;-67
2022/02/19 09:59:55;;;;;;;6.62;2.92;;;;;;;4.99;100.00;98335.30;1791579;79;21112;-68
2022/02/19 10:02:31;;;;;;;;;;;;;;;5.12;100.00;98356.33;1799171;79;21095;-67
2022/02/19 10:05:15;;;;;;;6.55;2.95;;;;;;;5.19;100.00;98321.80;1758931;80;20124;-69
2022/02/19 10:07:46;;;;;;;7.92;3.10;;;;;;;5.18;100.00;98367.91;1777028;80;21057;-67
2022/02/19 10:10:27;;;;;;;8.05;3.37;;;;;;;5.18;100.00;98383.56;1781470;80;21003;-68
2022/02/19 10:12:55;;;;;;;6.40;2.70;;;;;;;5.21;100.00;98381.67;1769589;80;21792;-68
2022/02/19 10:15:22;;;;;;;4.00;2.40;;;;;;;5.29;100.00;98372.23;1808764;79;21516;-69
2022/02/19 10:17:51;;;;;;;6.12;2.72;;;;;;;5.36;100.00;98360.63;1803064;79;22010;-69
2022/02/19 10:20:18;;;;;;;6.83;2.90;;;;;;;5.39;100.00;98376.27;1788091;79;21022;-69
2022/02/19 10:22:45;;;;;;;9.00;3.30;;;;;;;5.44;100.00;98354.69;1723273;79;21033;-69
2022/02/19 10:25:15;;;;;;;6.58;3.02;;;;;;;5.49;100.00;98389.78;1783502;80;21026;-69
2022/02/19 10:27:54;;;;;;;7.85;3.20;;;;;;;5.51;100.00;98381.68;1787033;79;21085;-69
2022/02/19 10:30:26;;;;;;;10.43;5.45;;;;;;;5.48;100.00;98379.53;1780772;80;21025;-68
2022/02/19 10:32:57;;;;;;;7.42;2.75;;;;;;;5.63;100.00;98387.34;1782920;80;21070;-68
2022/02/19 10:35:38;;;;;;;8.10;2.87;;;;;;;5.68;100.00;98374.62;1783311;80;21555;-69
2022/02/19 10:38:11;;;;;;;8.28;3.00;;;;;;;5.72;100.00;98380.30;1755971;80;21027;-69
2022/02/19 10:40:52;;;;;;;6.67;2.87;;;;;;;5.77;100.00;98381.11;1750547;81;21047;-69
2022/02/19 10:43:30;;;;;;;6.55;3.05;;;;;;;5.86;100.00;98393.52;1767425;80;21090;-69
2022/02/19 10:46:02;;;;;;;6.30;2.20;;;;;;;5.84;100.00;98391.09;1815300;79;21074;-67
2022/02/19 10:48:32;;;;;;;9.35;3.55;;;;;;;5.82;100.00;98386.48;1774497;79;21062;-67
2022/02/19 10:51:13;;;;;;;6.53;2.75;;;;;;;5.83;100.00;98397.56;1804532;79;21056;-68
2022/02/19 10:53:43;;;;;;;7.62;3.37;;;;;;;5.82;100.00;98393.77;1789546;79;21031;-67
2022/02/19 10:56:13;;;;;;;6.05;2.98;;;;;;;5.82;100.00;98396.47;1764187;80;21031;-67
2022/02/19 10:58:59;;;;;;;7.15;3.17;;;;;;;5.84;100.00;98382.17;1776204;80;21063;-68
2022/02/19 11:01:26;;;;;;;6.35;3.05;;;;;;;5.86;100.00;98384.89;1781847;79;21065;-68
2022/02/19 11:03:53;;;;;;;6.47;3.05;;;;;;;5.82;100.00;98379.73;1770823;79;21479;-68
2022/02/19 11:06:19;;;;;;;;;;;;;;;5.80;100.00;98381.91;1784543;79;21050;-68
2022/02/19 11:08:46;;;;;;;7.70;3.05;;;;;;;5.82;100.00;98382.97;1795016;79;20096;-68
2022/02/19 11:11:13;;;;;;;8.68;4.17;;;;;;;5.79;100.00;98388.92;1782768;79;21393;-68
2022/02/19 11:13:40;;;;;;;10.23;6.47;;;;;;;5.83;100.00;98390.00;1770272;80;21089;-68
2022/02/19 11:16:07;;;;;;;5.85;3.05;;;;;;;5.87;100.00;98387.86;1783436;80;21058;-68
2022/02/19 11:18:34;;;;;;;9.05;3.92;;;;;;;5.91;100.00;98405.14;1790695;79;21050;-68
2022/02/19 11:21:03;;;;;;;10.23;5.03;;;;;;;5.91;100.00;98386.23;1814588;79;21018;-68
2022/02/19 11:23:32;;;;;;;11.88;5.05;;;;;;;5.95;100.00;98381.09;1786803;79;21113;-68
2022/02/19 11:25:59;;;;;;;9.60;4.90;;;;;;;6.02;100.00;98361.89;1753835;82;21046;-69
2022/02/19 11:28:31;;;;;;;7.30;3.20;;;;;;;6.03;100.00;98368.36;1792119;79;21054;-68
2022/02/19 11:31:00;;;;;;;6.85;3.15;;;;;;;6.00;100.00;98381.88;1791328;79;21029;-68
2022/02/19 11:33:29;;;;;;;8.00;3.50;;;;;;;6.00;100.00;98394.57;1767035;81;21050;-68
2022/02/19 11:36:00;;;;;;;8.38;3.60;;;;;;;5.99;100.00;98399.16;1767178;80;21343;-68
2022/02/19 11:38:35;;;;;;;11.48;3.92;;;;;;;6.03;100.00;98399.42;1777504;80;21074;-69
2022/02/19 11:41:04;;;;;;;5.62;2.77;;;;;;;6.07;100.00;98400.50;1786262;80;21051;-69
2022/02/19 11:43:48;;;;;;;9.13;3.87;;;;;;;6.10;100.00;98401.30;1759036;81;21690;-68
2022/02/19 11:46:26;;;;;;;8.43;3.58;;;;;;;6.15;100.00;98388.31;1758924;81;21060;-69
2022/02/19 11:48:52;;;;;;;7.58;3.50;;;;;;;6.25;100.00;98382.33;1760657;80;21102;-68
2022/02/19 11:51:27;;;;;;;7.83;3.30;;;;;;;6.39;100.00;98369.84;1772058;80;21094;-68